首页
METAR-TAF:

METAR-TAF

机场 :

吕贝克机场

吕贝克, 德国

纬度: 53-49N, 经度: 010-42E, 海拔: 14米

当前天气观测

该预报发布于17分钟前的09:20 UTC
风速3节,风向多变
温度 6°C
湿度 93%
气压 1010 hPa
能見度: 7000
多云层高于400英尺

METAR: EDHL 220920Z VRB03KT 7000 BKN004 06/05 Q1010

时间: 10:37 (09:37 UTC)

预报

该预报发布于40分钟前的08:57 UTC
预报有效从22日的 09点(UTC)到 22日的 18点(UTC)
风速5节,风向东南
能見度: 8000
多云层高于800英尺
短暂存在
从 22日的 09点(UTC)到 22日的 18点(UTC)
散云层高于800英尺

TAF: EDHL 220857Z 2209/2218 13005KT 8000 BKN008 TEMPO 2209/2218 SCT008

超过4000个机场的气象观测和天气预报(METAR&TAF报告)。

可查询的气象台以黄色和红色小点在地图上表示。

将鼠标移到小点上方,可查看气象台名称。

然后点击查看天气观测和预报。

如需切换地图:点击带黑十字的绿色按钮放大地图;点击带横线的绿色按钮缩小地图;或者点击绿色箭头查看邻近地区的地图。


METAR-TAF: